Time;durP1;ratioP1;P1;durP2;ratioP2;P2;SDS_P1;SDS_P2;PMS_P1;PMS_P2;Temp;Humidity;BMP_temperature;BMP_pressure;BME280_temperature;BME280_humidity;BME280_pressure;Samples;Min_cycle;Max_cycle;Signal;HPM_P1;HPM_P2
2022/09/08 01:42:33;;;;;;;67.97;12.50;;;20.20;99.90;;;;;;3119304;23;20480;-87
2022/09/08 01:45:45;;;;;;;68.57;12.60;;;20.30;99.90;;;;;;5015567;28;20417;-87
2022/09/08 01:48:45;;;;;;;71.90;12.83;;;20.30;99.90;;;;;;4978749;28;20433;-87
2022/09/08 01:59:23;;;;;;;;;;;;;;;;;;;;;
2022/09/08 02:03:06;;;;;;;;;;;;;;;;;;;;;
2022/09/08 02:19:32;;;;;;;72.57;7.60;;;20.30;99.90;;;;;;3307169;26;20507;-87
2022/09/08 02:22:06;;;;;;;68.13;8.47;;;20.30;99.90;;;;;;5048528;28;20418;-87
2022/09/08 02:24:33;;;;;;;66.63;8.47;;;20.30;99.90;;;;;;5032452;28;20446;-87
2022/09/08 02:27:13;;;;;;;70.10;7.67;;;20.30;99.90;;;;;;5033415;28;20420;-86
2022/09/08 02:29:42;;;;;;;67.20;8.43;;;20.30;99.90;;;;;;5033673;28;20399;-87
2022/09/08 02:32:22;;;;;;;69.60;9.00;;;20.40;99.90;;;;;;5031991;28;20471;-87
2022/09/08 02:35:03;;;;;;;68.07;8.80;;;20.40;99.90;;;;;;5031944;28;20385;-86
2022/09/08 02:37:29;;;;;;;68.47;8.33;;;20.40;99.90;;;;;;5029048;28;20450;-86
2022/09/08 02:39:58;;;;;;;70.93;8.37;;;20.40;99.90;;;;;;5031242;28;20461;-86
2022/09/08 02:42:24;;;;;;;68.50;9.60;;;20.40;99.90;;;;;;5048821;28;20601;-86
2022/09/08 02:45:19;;;;;;;70.97;10.10;;;20.30;99.90;;;;;;5050049;28;20398;-87
2022/09/08 02:55:52;;;;;;;71.40;12.00;;;20.20;99.90;;;;;;4930896;29;20422;-86
2022/09/08 02:58:31;;;;;;;70.57;12.00;;;20.20;99.90;;;;;;4938563;29;20925;-85
2022/09/08 03:01:15;;;;;;;72.50;13.90;;;20.10;99.90;;;;;;4940393;29;20421;-86
2022/09/08 03:07:18;;;;;;;;;;;;;;;;;;;;;
2022/09/08 03:09:45;;;;;;;71.90;24.07;;;19.90;99.90;;;;;;4967119;28;20502;-85
2022/09/08 03:12:54;;;;;;;71.20;16.00;;;19.90;99.90;;;;;;4964894;28;20426;-85
2022/09/08 03:15:49;;;;;;;70.63;20.63;;;19.90;99.90;;;;;;4887305;29;20919;-85
2022/09/08 03:18:38;;;;;;;;;;;;;;;;;;;;;
2022/09/08 03:21:13;;;;;;;72.70;19.60;;;19.90;99.90;;;;;;4883507;29;20490;-84
2022/09/08 03:23:39;;;;;;;70.20;15.97;;;19.90;99.90;;;;;;4936447;28;20932;-84
2022/09/08 03:26:20;;;;;;;69.97;17.10;;;20.00;99.90;;;;;;5038128;28;20398;-84
2022/09/08 03:28:49;;;;;;;69.47;18.43;;;20.00;99.90;;;;;;5048463;28;20192;-85
2022/09/08 03:31:20;;;;;;;72.30;15.90;;;20.00;99.90;;;;;;5032857;28;20402;-85
2022/09/08 03:33:48;;;;;;;69.77;15.10;;;20.00;99.90;;;;;;5023331;28;20432;-84
2022/09/08 03:36:15;;;;;;;68.20;14.67;;;20.00;99.90;;;;;;5019462;28;20418;-84
2022/09/08 03:38:45;;;;;;;72.70;16.50;;;20.00;99.90;;;;;;5018172;28;20496;-84
2022/09/08 03:41:16;;;;;;;68.57;15.93;;;20.00;99.90;;;;;;5036726;28;20866;-84
2022/09/08 03:43:53;;;;;;;69.40;17.47;;;20.00;99.90;;;;;;5037670;28;20380;-84
2022/09/08 03:46:25;;;;;;;70.00;17.07;;;20.00;99.90;;;;;;5019377;28;20393;-84
2022/09/08 03:48:51;;;;;;;74.27;20.83;;;19.90;99.90;;;;;;5019302;28;20409;-84
2022/09/08 03:51:28;;;;;;;75.30;18.10;;;19.80;99.90;;;;;;5037398;28;20435;-84
2022/09/08 03:56:51;;;;;;;73.03;28.33;;;19.60;99.90;;;;;;5037108;28;20450;-84
2022/09/08 03:59:17;;;;;;;73.07;26.63;;;19.50;99.90;;;;;;5019576;28;20540;-85
2022/09/08 04:02:02;;;;;;;76.67;31.63;;;19.40;99.90;;;;;;5046955;28;20405;-86
2022/09/08 04:12:26;;;;;;;;;;;;;;;;;;;;;
2022/09/08 04:15:38;;;;;;;;;;;;;;;;;;;;;
2022/09/08 04:22:28;;;;;;;76.73;31.77;;;19.40;99.90;;;;;;5021026;28;20431;-85
2022/09/08 04:28:58;;;;;;;75.47;33.47;;;19.40;99.90;;;;;;4924982;29;20484;-84
2022/09/08 04:32:25;;;;;;;;;;;;;;;;;;;;;
2022/09/08 04:41:47;;;;;;;84.63;52.63;;;19.30;99.90;;;;;;4870585;26;20473;-87
2022/09/08 04:45:05;;;;;;;90.40;64.40;;;19.20;99.90;;;;;;4944812;29;20405;-86
2022/09/08 05:50:26;;;;;;;;;;;;;;;;;;;;;
2022/09/08 05:53:24;;;;;;;90.90;75.17;;;19.20;99.90;;;;;;4922563;29;20524;-86
2022/09/08 05:56:39;;;;;;;107.47;96.37;;;19.20;99.90;;;;;;4916721;29;20427;-86
2022/09/08 05:59:11;;;;;;;94.07;83.17;;;19.20;99.90;;;;;;4968330;28;20460;-86
2022/09/08 06:01:37;;;;;;;112.53;101.70;;;19.30;99.90;;;;;;5013911;28;20470;-86
2022/09/08 06:04:03;;;;;;;95.33;85.13;;;19.20;99.90;;;;;;5031525;28;20401;-86
2022/09/08 06:06:32;;;;;;;101.63;90.97;;;19.30;99.90;;;;;;5030578;28;20170;-86
2022/09/08 06:08:59;;;;;;;112.00;101.20;;;19.20;99.90;;;;;;5013104;28;20831;-86
2022/09/08 06:11:30;;;;;;;126.93;115.07;;;19.20;99.90;;;;;;5031274;28;20468;-86
2022/09/08 06:18:28;;;;;;;;;;;;;;;;;;;;;
2022/09/08 06:21:30;;;;;;;;;;;;;;;;;;;;;
2022/09/08 06:25:06;;;;;;;94.47;84.13;;;19.30;99.90;;;;;;5048451;28;20448;-86
2022/09/08 06:27:56;;;;;;;100.17;89.10;;;19.20;99.90;;;;;;4950173;29;20487;-87
2022/09/08 06:30:28;;;;;;;90.23;69.93;;;19.30;99.90;;;;;;5010772;28;20534;-86
2022/09/08 06:33:06;;;;;;;110.20;99.23;;;19.30;99.90;;;;;;5012807;28;20411;-86
2022/09/08 06:35:59;;;;;;;92.20;81.83;;;19.30;99.90;;;;;;5030201;28;20391;-87
2022/09/08 06:38:47;;;;;;;95.70;85.43;;;19.30;99.90;;;;;;5018900;28;20437;-86
2022/09/08 06:41:42;;;;;;;85.17;58.07;;;19.40;99.90;;;;;;5012036;28;20406;-86
2022/09/08 06:44:20;;;;;;;79.53;42.10;;;19.50;99.90;;;;;;5011049;28;20429;-86
2022/09/08 06:46:46;;;;;;;85.43;48.37;;;19.50;99.90;;;;;;5011334;28;20439;-86
2022/09/08 06:49:13;;;;;;;89.97;62.73;;;19.50;99.90;;;;;;5028902;28;20808;-86
2022/09/08 06:52:05;;;;;;;87.53;61.80;;;19.50;99.90;;;;;;5010370;28;20175;-86
2022/09/08 06:54:55;;;;;;;80.07;39.00;;;19.60;99.90;;;;;;5013143;28;20429;-86
2022/09/08 06:57:59;;;;;;;75.80;31.47;;;19.70;99.90;;;;;;5007242;28;20453;-85
2022/09/08 07:03:26;;;;;;;80.63;39.17;;;19.70;99.90;;;;;;5053952;22;20503;-84
2022/09/08 07:06:03;;;;;;;77.47;37.77;;;19.80;99.90;;;;;;5040554;28;20440;-84
2022/09/08 07:08:59;;;;;;;78.83;36.93;;;19.60;99.90;;;;;;5027070;28;20455;-84
2022/09/08 07:11:37;;;;;;;78.20;32.80;;;19.60;99.90;;;;;;5044890;28;20393;-84
2022/09/08 07:14:33;;;;;;;78.50;35.83;;;19.60;99.90;;;;;;5045810;28;20377;-84
2022/09/08 07:17:13;;;;;;;78.27;35.43;;;19.50;99.90;;;;;;5046336;28;20415;-86
2022/09/08 07:19:49;;;;;;;84.07;52.90;;;19.50;99.90;;;;;;5030687;28;20467;-86
2022/09/08 07:22:25;;;;;;;82.73;48.67;;;19.40;99.90;;;;;;5045105;28;20449;-88
2022/09/08 07:24:56;;;;;;;86.83;62.83;;;19.30;99.90;;;;;;5044038;28;20388;-87
2022/09/08 07:27:23;;;;;;;94.90;84.70;;;19.20;99.90;;;;;;5045366;28;20420;-87
2022/09/08 07:29:52;;;;;;;89.63;77.43;;;19.20;99.90;;;;;;5047544;28;20408;-86
2022/09/08 07:32:29;;;;;;;95.30;85.00;;;19.20;99.90;;;;;;5050498;28;20409;-86
2022/09/08 07:35:04;;;;;;;90.27;75.83;;;19.20;99.90;;;;;;5050892;28;20384;-85
2022/09/08 07:37:48;;;;;;;105.23;94.53;;;19.20;99.90;;;;;;5032069;28;20510;-86
2022/09/08 07:40:42;;;;;;;89.23;75.27;;;19.30;99.90;;;;;;5050556;28;20429;-85
2022/09/08 07:43:12;;;;;;;93.73;83.53;;;19.30;99.90;;;;;;5040284;28;20428;-85
2022/09/08 07:46:21;;;;;;;90.90;80.77;;;19.50;99.90;;;;;;5050163;28;20402;-85
2022/09/08 07:49:02;;;;;;;86.93;71.27;;;19.50;99.90;;;;;;5050503;28;20388;-85
2022/09/08 07:51:35;;;;;;;89.33;68.03;;;19.50;99.90;;;;;;5049432;28;20390;-85
2022/09/08 07:54:32;;;;;;;93.27;83.20;;;19.60;99.90;;;;;;5049365;28;20941;-85
2022/09/08 07:57:07;;;;;;;85.63;64.20;;;19.70;99.90;;;;;;5026148;28;20432;-85
2022/09/08 07:59:35;;;;;;;86.40;64.77;;;19.70;99.90;;;;;;5048516;28;20438;-86
2022/09/08 08:02:23;;;;;;;86.83;56.70;;;19.80;99.90;;;;;;5047244;28;20496;-86
2022/09/08 08:05:27;;;;;;;74.43;34.00;;;19.80;99.90;;;;;;5049880;28;20418;-86
2022/09/08 08:08:11;;;;;;;72.33;27.83;;;19.80;99.90;;;;;;5030177;28;20428;-86
2022/09/08 08:10:56;;;;;;;70.23;17.00;;;19.80;99.90;;;;;;5029551;28;20408;-86
2022/09/08 08:13:38;;;;;;;71.47;19.77;;;19.70;99.90;;;;;;5046788;28;20493;-86
2022/09/08 08:16:28;;;;;;;70.17;20.70;;;19.60;99.90;;;;;;5029246;28;20476;-86
2022/09/08 08:19:09;;;;;;;71.17;22.47;;;19.60;99.90;;;;;;5046078;28;20442;-86
2022/09/08 08:21:43;;;;;;;71.97;24.70;;;19.60;99.90;;;;;;5027628;28;20771;-86
2022/09/08 08:24:43;;;;;;;67.87;16.30;;;19.60;99.90;;;;;;5045432;28;20470;-85
2022/09/08 08:27:24;;;;;;;71.10;22.20;;;19.50;99.90;;;;;;5011349;28;20443;-86
2022/09/08 08:30:09;;;;;;;70.10;16.30;;;19.50;99.90;;;;;;5045317;28;20397;-85
2022/09/08 08:32:43;;;;;;;67.47;14.77;;;19.40;99.90;;;;;;5044687;28;20407;-86
2022/09/08 08:35:27;;;;;;;72.50;25.27;;;19.40;99.90;;;;;;5045552;28;20384;-84
2022/09/08 08:37:54;;;;;;;68.10;15.50;;;19.40;99.90;;;;;;5027888;28;20466;-85
2022/09/08 08:40:41;;;;;;;67.30;14.60;;;19.30;99.90;;;;;;5045312;28;20518;-85
2022/09/08 08:43:29;;;;;;;73.90;28.13;;;19.40;99.90;;;;;;5029164;28;20405;-86
2022/09/08 08:46:01;;;;;;;72.10;22.30;;;19.40;99.90;;;;;;5030144;28;20483;-86
2022/09/08 08:48:36;;;;;;;72.93;28.40;;;19.40;99.90;;;;;;5029471;28;20432;-86
2022/09/08 08:51:43;;;;;;;79.13;40.53;;;19.40;99.90;;;;;;5046571;28;20915;-86
2022/09/08 08:54:18;;;;;;;71.17;19.73;;;19.50;99.90;;;;;;5028515;28;20404;-86
2022/09/08 08:56:57;;;;;;;69.80;20.40;;;19.70;99.90;;;;;;5045070;28;20426;-86
2022/09/08 08:59:51;;;;;;;68.37;17.00;;;19.90;99.90;;;;;;5027606;28;20476;-86
2022/09/08 09:02:40;;;;;;;69.97;17.57;;;20.10;99.90;;;;;;5026734;28;20427;-86
2022/09/08 09:05:38;;;;;;;69.67;13.67;;;20.20;99.90;;;;;;5046044;28;20389;-86
2022/09/08 09:08:24;;;;;;;70.93;25.27;;;20.30;99.90;;;;;;5043129;28;20491;-85
2022/09/08 09:11:14;;;;;;;70.40;25.10;;;20.20;99.90;;;;;;5042146;28;20386;-85
2022/09/08 09:13:43;;;;;;;70.60;21.50;;;20.10;99.90;;;;;;5043837;28;20384;-85
2022/09/08 09:16:08;;;;;;;66.43;11.53;;;20.10;99.90;;;;;;5042932;28;20456;-86
2022/09/08 09:18:56;;;;;;;67.03;12.63;;;20.10;99.90;;;;;;5020793;28;20443;-84
2022/09/08 09:21:35;;;;;;;66.60;9.03;;;20.10;99.90;;;;;;5020944;28;20172;-85
2022/09/08 09:24:21;;;;;;;65.97;9.57;;;19.90;99.90;;;;;;5038398;28;20376;-85
2022/09/08 09:26:53;;;;;;;65.87;12.33;;;19.80;99.90;;;;;;5038157;28;20413;-85
2022/09/08 09:29:25;;;;;;;70.07;22.13;;;19.90;99.90;;;;;;5036916;28;20404;-85
2022/09/08 09:32:33;;;;;;;67.73;12.60;;;20.00;99.90;;;;;;5037077;28;20402;-84
2022/09/08 09:35:18;;;;;;;65.30;11.40;;;20.00;99.90;;;;;;4981784;28;20434;-85
2022/09/08 09:37:59;;;;;;;65.27;7.03;;;20.10;99.90;;;;;;5023952;28;20463;-87
2022/09/08 09:40:46;;;;;;;73.40;12.60;;;20.30;99.90;;;;;;5043005;28;20463;-86
2022/09/08 09:43:26;;;;;;;66.00;10.63;;;20.30;99.90;;;;;;5024465;28;20772;-87
2022/09/08 09:46:03;;;;;;;64.90;7.97;;;20.50;99.90;;;;;;5041957;28;20459;-86
2022/09/08 09:48:48;;;;;;;63.70;4.03;;;20.70;99.90;;;;;;5023323;28;20432;-86
2022/09/08 09:51:31;;;;;;;64.83;5.33;;;20.70;99.90;;;;;;5023521;28;20407;-87
2022/09/08 09:54:09;;;;;;;64.87;3.90;;;20.90;99.90;;;;;;5041020;28;20418;-86
2022/09/08 09:56:59;;;;;;;63.10;3.07;;;21.10;99.90;;;;;;5023011;28;20410;-86
2022/09/08 10:00:03;;;;;;;64.67;3.80;;;21.10;99.90;;;;;;5041339;28;20945;-86
2022/09/08 10:03:11;;;;;;;64.00;2.43;;;21.10;99.90;;;;;;5023525;28;20956;-86
2022/09/08 10:05:57;;;;;;;63.27;2.63;;;21.00;99.90;;;;;;5039706;28;20905;-87
2022/09/08 10:08:51;;;;;;;64.87;2.80;;;20.80;99.90;;;;;;5021243;28;20511;-85
2022/09/08 10:11:35;;;;;;;63.83;2.70;;;20.90;99.90;;;;;;5021731;28;20453;-85
2022/09/08 10:14:28;;;;;;;63.57;2.13;;;21.00;99.90;;;;;;5023758;28;20994;-86
2022/09/08 10:17:18;;;;;;;64.50;2.63;;;21.20;99.90;;;;;;5023514;28;20447;-86
2022/09/08 10:20:06;;;;;;;64.00;2.80;;;21.30;99.90;;;;;;5040053;28;20447;-84
2022/09/08 10:23:13;;;;;;;66.50;2.60;;;21.30;99.90;;;;;;5039037;28;20403;-86
2022/09/08 10:29:02;;;;;;;65.93;2.80;;;21.30;99.60;;;;;;5325006;22;20490;-86
2022/09/08 10:31:39;;;;;;;64.10;2.30;;;21.50;99.90;;;;;;4941423;29;20524;-87
2022/09/08 10:34:23;;;;;;;63.97;2.33;;;21.70;99.90;;;;;;4942991;29;20432;-87
2022/09/08 10:37:21;;;;;;;65.00;2.30;;;22.00;99.90;;;;;;5003256;28;20434;-87
2022/09/08 10:39:56;;;;;;;64.50;3.00;;;22.50;99.90;;;;;;5037089;28;20478;-87
2022/09/08 10:42:39;;;;;;;64.30;2.50;;;22.80;83.70;;;;;;5025122;28;20412;-86
2022/09/08 10:45:24;;;;;;;65.00;2.17;;;22.70;61.00;;;;;;5025512;28;20409;-86
2022/09/08 10:48:08;;;;;;;64.00;2.00;;;22.60;70.00;;;;;;5026281;28;20430;-86
2022/09/08 10:50:37;;;;;;;64.00;2.70;;;22.60;73.40;;;;;;5030071;28;20412;-85
2022/09/08 10:53:12;;;;;;;65.37;6.40;;;22.70;56.70;;;;;;5031192;28;20412;-86
2022/09/08 10:55:56;;;;;;;64.87;6.57;;;22.70;52.30;;;;;;5049440;28;20404;-86
2022/09/08 10:58:43;;;;;;;66.00;6.50;;;22.70;47.40;;;;;;5049670;28;20428;-86
2022/09/08 11:01:26;;;;;;;66.40;7.20;;;22.70;53.60;;;;;;5049108;28;20403;-87
2022/09/08 11:04:31;;;;;;;66.77;6.80;;;22.70;46.20;;;;;;5032180;28;20399;-86
2022/09/08 11:07:35;;;;;;;66.27;7.33;;;23.10;45.30;;;;;;5030081;28;20428;-87
2022/09/08 11:10:22;;;;;;;65.80;4.10;;;23.70;35.40;;;;;;5033797;28;20415;-86
2022/09/08 11:13:16;;;;;;;65.40;3.40;;;24.00;23.30;;;;;;5028761;28;20404;-86
2022/09/08 11:16:04;;;;;;;65.07;2.80;;;24.20;12.30;;;;;;5043152;28;20381;-87
2022/09/08 11:18:48;;;;;;;65.07;3.10;;;24.10;6.60;;;;;;5047272;28;20443;-87
2022/09/08 11:21:47;;;;;;;65.10;2.30;;;23.90;11.10;;;;;;5028333;28;20421;-87
2022/09/08 11:24:27;;;;;;;65.23;3.80;;;23.30;15.50;;;;;;5029569;28;20415;-86
2022/09/08 11:27:23;;;;;;;66.10;4.70;;;23.00;30.00;;;;;;5044972;28;20780;-86
2022/09/08 11:30:17;;;;;;;64.80;2.67;;;22.80;39.20;;;;;;5044943;28;20420;-86
2022/09/08 11:32:52;;;;;;;67.50;5.47;;;22.70;29.80;;;;;;5027312;28;20419;-87
2022/09/08 11:35:47;;;;;;;67.77;4.33;;;22.30;55.80;;;;;;5044162;28;20407;-87
2022/09/08 11:38:50;;;;;;;66.37;3.50;;;22.00;99.10;;;;;;5029467;28;20466;-87
2022/09/08 11:41:41;;;;;;;65.40;4.60;;;21.50;99.90;;;;;;5047115;28;20416;-87
2022/09/08 11:44:55;;;;;;;65.10;3.30;;;21.10;99.90;;;;;;5030048;28;20434;-86
2022/09/08 11:47:49;;;;;;;64.70;2.70;;;20.80;99.90;;;;;;5019070;28;20424;-85
2022/09/08 11:50:58;;;;;;;63.93;2.50;;;20.80;99.90;;;;;;5033407;28;20792;-85
2022/09/08 11:53:41;;;;;;;63.20;2.80;;;21.00;99.90;;;;;;5025261;28;20412;-85
2022/09/08 11:56:39;;;;;;;64.80;3.00;;;21.40;99.90;;;;;;5050561;28;20495;-86
2022/09/08 11:59:10;;;;;;;63.50;2.20;;;22.00;99.90;;;;;;5009736;28;20444;-85
2022/09/08 12:01:42;;;;;;;63.13;2.40;;;22.20;99.90;;;;;;5033165;28;20400;-85
2022/09/08 12:04:21;;;;;;;65.37;2.20;;;22.30;99.90;;;;;;5032413;28;20413;-86
2022/09/08 12:07:11;;;;;;;63.27;2.30;;;22.60;99.90;;;;;;5031911;28;20424;-86
2022/09/08 12:09:40;;;;;;;64.43;2.30;;;22.90;99.90;;;;;;5048344;28;20751;-86
2022/09/08 12:12:11;;;;;;;63.60;2.73;;;23.00;99.90;;;;;;5046333;28;20851;-86
2022/09/08 12:15:04;;;;;;;64.00;3.07;;;22.90;99.90;;;;;;5028066;28;20400;-86
2022/09/08 12:17:41;;;;;;;64.47;2.57;;;22.60;99.90;;;;;;5045650;28;20859;-86
2022/09/08 12:20:35;;;;;;;65.43;2.77;;;22.60;99.90;;;;;;5027566;28;20447;-86
2022/09/08 12:23:20;;;;;;;64.03;3.03;;;22.40;99.90;;;;;;5043760;28;20725;-86
2022/09/08 12:26:11;;;;;;;64.17;2.33;;;22.40;99.90;;;;;;5042686;28;20384;-86
2022/09/08 12:28:37;;;;;;;63.70;2.43;;;22.40;99.90;;;;;;5023344;28;20522;-86
2022/09/08 12:31:36;;;;;;;63.30;2.50;;;22.60;99.90;;;;;;5022800;28;20498;-85
2022/09/08 12:34:40;;;;;;;63.97;2.87;;;22.80;99.90;;;;;;5040036;28;20180;-85
2022/09/08 12:37:35;;;;;;;67.43;2.70;;;23.20;97.40;;;;;;5020963;28;20510;-86
2022/09/08 12:40:21;;;;;;;63.60;2.30;;;23.40;80.50;;;;;;5042062;28;20761;-88
2022/09/08 12:43:08;;;;;;;66.17;7.70;;;23.50;77.60;;;;;;5048532;28;20399;-86
2022/09/08 12:46:01;;;;;;;68.17;6.60;;;23.40;64.10;;;;;;5044966;28;20392;-86
2022/09/08 12:48:39;;;;;;;67.37;7.13;;;23.60;63.00;;;;;;5045108;28;20416;-86
2022/09/08 12:51:23;;;;;;;69.40;7.87;;;23.70;54.30;;;;;;5045417;28;20804;-86
2022/09/08 12:54:13;;;;;;;67.07;8.47;;;23.80;52.50;;;;;;5027217;28;20412;-86
2022/09/08 12:57:21;;;;;;;66.27;5.90;;;23.80;63.30;;;;;;5029146;28;20443;-86
2022/09/08 13:00:14;;;;;;;65.40;3.40;;;24.10;67.50;;;;;;5045150;28;20511;-86
2022/09/08 13:02:43;;;;;;;64.87;2.90;;;24.10;31.30;;;;;;5026379;28;20435;-86
2022/09/08 13:05:29;;;;;;;65.30;3.63;;;23.60;27.90;;;;;;5027422;28;20848;-86
2022/09/08 13:08:20;;;;;;;65.90;2.30;;;23.50;36.80;;;;;;5026077;28;20858;-86
2022/09/08 13:10:46;;;;;;;64.73;2.27;;;23.70;24.10;;;;;;5024700;28;20404;-87
2022/09/08 13:13:20;;;;;;;65.00;2.63;;;23.40;33.20;;;;;;5029730;28;20776;-86
2022/09/08 13:16:01;;;;;;;66.30;2.20;;;23.30;39.60;;;;;;5046657;28;20387;-86
2022/09/08 13:19:02;;;;;;;71.80;5.28;;;23.40;37.90;;;;;;5045283;28;20901;-87
2022/09/08 13:21:40;;;;;;;65.97;2.10;;;23.50;28.20;;;;;;5028691;28;20239;-86
2022/09/08 13:24:09;;;;;;;66.00;2.07;;;23.70;13.40;;;;;;5029576;28;20412;-86
2022/09/08 13:26:56;;;;;;;65.70;2.20;;;23.70;27.80;;;;;;5045701;28;20893;-87
2022/09/08 13:29:49;;;;;;;65.90;2.03;;;23.50;1.00;;;;;;5042456;28;20424;-87
2022/09/08 13:32:31;;;;;;;64.90;1.90;;;23.00;1.00;;;;;;5042930;28;20384;-87
2022/09/08 13:35:21;;;;;;;65.00;2.00;;;22.70;1.00;;;;;;5043176;28;20384;-86
2022/09/08 13:38:15;;;;;;;65.37;2.40;;;22.80;1.00;;;;;;5026053;28;20454;-86
2022/09/08 13:40:49;;;;;;;67.00;2.23;;;22.80;1.00;;;;;;5025490;28;20972;-87
2022/09/08 13:43:22;;;;;;;65.20;2.17;;;22.70;1.00;;;;;;5026183;28;20425;-88
2022/09/08 13:46:06;;;;;;;66.07;2.23;;;22.80;1.00;;;;;;5046440;28;20480;-87
2022/09/08 13:49:00;;;;;;;65.50;2.67;;;22.70;1.00;;;;;;5028377;28;20504;-87
2022/09/08 13:51:54;;;;;;;66.90;2.27;;;22.80;1.00;;;;;;5028490;28;20435;-86
2022/09/08 13:54:35;;;;;;;66.77;1.90;;;23.00;1.00;;;;;;5028031;28;20411;-86
2022/09/08 13:57:31;;;;;;;65.83;2.20;;;23.20;1.00;;;;;;5046080;28;20415;-86
2022/09/08 14:00:17;;;;;;;66.77;2.10;;;23.30;1.00;;;;;;5027788;28;20546;-87
2022/09/08 14:02:58;;;;;;;66.70;2.30;;;23.30;1.00;;;;;;5026696;28;20514;-86
2022/09/08 14:05:41;;;;;;;66.20;2.00;;;23.30;1.00;;;;;;5047888;28;20404;-87
2022/09/08 14:08:24;;;;;;;65.70;2.33;;;23.50;1.00;;;;;;5045227;28;20443;-87
2022/09/08 14:11:11;;;;;;;65.60;2.40;;;23.60;1.00;;;;;;5028333;28;20410;-86
2022/09/08 14:13:38;;;;;;;66.10;2.30;;;23.80;1.00;;;;;;5055133;28;20365;-87
2022/09/08 14:16:17;;;;;;;67.53;1.90;;;24.00;1.00;;;;;;5052538;28;20445;-87
2022/09/08 14:19:08;;;;;;;65.13;1.87;;;24.00;1.00;;;;;;5032950;28;20436;-87
2022/09/08 14:21:35;;;;;;;64.97;2.03;;;23.80;1.00;;;;;;5050085;28;20388;-86
2022/09/08 14:24:35;;;;;;;65.80;2.57;;;23.50;1.00;;;;;;5032412;28;20408;-87
2022/09/08 14:27:44;;;;;;;67.63;2.23;;;23.40;1.00;;;;;;5031553;28;20424;-88
2022/09/08 14:30:29;;;;;;;65.57;2.00;;;23.10;1.00;;;;;;5031711;28;20424;-86
2022/09/08 14:33:33;;;;;;;66.57;1.90;;;23.00;1.00;;;;;;5047610;28;20420;-87
2022/09/08 14:36:09;;;;;;;66.43;1.90;;;23.00;1.00;;;;;;5030698;28;20478;-86
2022/09/08 14:38:54;;;;;;;66.10;2.00;;;23.00;1.00;;;;;;5047350;28;20427;-86
2022/09/08 14:41:22;;;;;;;66.10;2.00;;;22.90;1.00;;;;;;5047540;28;20396;-87
2022/09/08 14:44:03;;;;;;;64.77;2.13;;;22.80;1.00;;;;;;5028066;28;20420;-86
2022/09/08 14:46:42;;;;;;;67.50;2.00;;;22.80;1.00;;;;;;5048038;28;20399;-87
2022/09/08 14:49:35;;;;;;;66.07;2.30;;;22.70;1.00;;;;;;5048554;28;20412;-87
2022/09/08 14:52:11;;;;;;;65.53;2.43;;;22.70;1.00;;;;;;5047423;28;20392;-87
2022/09/08 14:54:58;;;;;;;65.30;2.30;;;22.70;1.00;;;;;;5030222;28;20471;-87
2022/09/08 14:57:38;;;;;;;65.30;2.10;;;22.70;1.90;;;;;;5030779;28;20432;-87
2022/09/08 15:00:10;;;;;;;68.90;2.27;;;22.70;2.20;;;;;;5047678;28;20436;-86
2022/09/08 15:02:58;;;;;;;66.17;2.50;;;22.60;1.00;;;;;;5046127;28;20838;-86
2022/09/08 15:05:33;;;;;;;65.10;2.13;;;22.70;14.50;;;;;;5025333;28;20407;-86
2022/09/08 15:08:51;;;;;;;65.87;2.73;;;22.70;32.90;;;;;;5044689;28;20943;-86
2022/09/08 15:18:25;;;;;;;66.40;3.53;;;22.60;41.90;;;;;;5047921;28;20424;-87
2022/09/08 15:21:09;;;;;;;65.50;4.33;;;22.60;44.80;;;;;;5027937;28;20443;-87
2022/09/08 15:23:42;;;;;;;66.10;4.90;;;22.70;51.10;;;;;;5028376;28;20419;-86
2022/09/08 15:26:14;;;;;;;67.83;4.80;;;22.70;63.50;;;;;;5046117;28;20422;-88
2022/09/08 15:28:49;;;;;;;66.00;2.60;;;22.60;64.80;;;;;;5025696;28;20494;-87
2022/09/08 15:31:37;;;;;;;66.30;1.70;;;22.50;44.60;;;;;;5026421;28;20404;-87
2022/09/08 15:34:15;;;;;;;69.23;2.10;;;22.40;34.70;;;;;;5026356;28;20412;-86
2022/09/08 15:42:18;;;;;;;65.10;1.80;;;22.40;23.40;;;;;;5041178;28;20951;-85
2022/09/08 15:48:39;;;;;;;67.57;2.17;;;22.40;17.60;;;;;;5036208;28;20463;-87
2022/09/08 15:51:39;;;;;;;64.97;2.00;;;22.70;12.50;;;;;;5029660;28;20403;-87
2022/09/08 15:54:22;;;;;;;64.77;1.70;;;22.60;15.70;;;;;;5029347;28;20788;-85
2022/09/08 15:56:56;;;;;;;66.67;2.10;;;22.60;13.40;;;;;;5045672;28;20467;-85
2022/09/08 16:00:16;;;;;;;65.17;1.93;;;22.70;16.80;;;;;;5027838;28;20475;-85
2022/09/08 16:02:59;;;;;;;66.37;2.17;;;23.10;1.00;;;;;;5013362;28;20850;-86
2022/09/08 16:05:50;;;;;;;64.77;1.90;;;23.20;1.00;;;;;;5027532;28;20408;-85
2022/09/08 16:08:45;;;;;;;65.87;1.93;;;24.20;1.00;;;;;;5026283;28;20589;-86
2022/09/08 16:11:39;;;;;;;66.57;2.10;;;25.00;1.00;;;;;;5027680;28;20412;-85
2022/09/08 16:14:26;;;;;;;65.13;2.03;;;25.10;1.00;;;;;;5026848;28;20411;-85
2022/09/08 16:17:06;;;;;;;66.00;1.87;;;25.10;1.00;;;;;;5024801;28;20443;-85
2022/09/08 16:20:02;;;;;;;67.17;1.90;;;25.10;1.00;;;;;;5025375;28;20452;-86
2022/09/08 16:22:51;;;;;;;66.77;2.10;;;24.90;1.00;;;;;;5013135;28;20893;-85
2022/09/08 16:25:54;;;;;;;68.30;2.07;;;25.10;1.00;;;;;;5023360;28;20775;-85
2022/09/08 16:28:35;;;;;;;66.10;2.00;;;25.30;1.00;;;;;;5142811;23;20997;-85
2022/09/08 16:31:25;;;;;;;67.00;2.13;;;25.40;1.00;;;;;;5019988;28;20402;-86
2022/09/08 16:34:26;;;;;;;67.83;2.17;;;25.30;1.00;;;;;;5037807;28;20381;-85
2022/09/08 16:37:10;;;;;;;66.20;3.17;;;24.90;1.00;;;;;;5021520;28;20430;-85
2022/09/08 16:39:36;;;;;;;64.87;1.73;;;24.20;1.00;;;;;;5094833;22;20481;-83
2022/09/08 16:42:10;;;;;;;65.17;1.80;;;23.80;1.00;;;;;;5020546;28;20476;-83
2022/09/08 16:44:50;;;;;;;64.70;1.70;;;23.40;1.00;;;;;;5002080;28;20428;-82
2022/09/08 16:47:43;;;;;;;66.33;2.00;;;23.10;1.00;;;;;;5019719;28;20436;-80
2022/09/08 16:50:12;;;;;;;65.07;2.23;;;23.00;1.00;;;;;;5019305;28;20385;-81
2022/09/08 16:52:38;;;;;;;64.67;1.70;;;22.70;1.00;;;;;;4998114;28;20398;-81
2022/09/08 16:55:36;;;;;;;67.43;2.00;;;22.40;1.00;;;;;;5016345;28;20488;-80
2022/09/08 16:58:33;;;;;;;65.17;1.80;;;22.30;1.00;;;;;;5000359;28;20252;-81
2022/09/08 17:01:14;;;;;;;66.47;2.00;;;22.10;1.00;;;;;;5002289;28;20447;-81
2022/09/08 17:03:58;;;;;;;66.17;1.93;;;22.10;1.00;;;;;;5001702;28;20423;-81
2022/09/08 17:06:32;;;;;;;67.60;2.23;;;22.00;1.00;;;;;;5018682;28;20880;-80
2022/09/08 17:09:16;;;;;;;65.97;2.10;;;21.90;1.00;;;;;;5018907;28;20440;-81
2022/09/08 17:12:09;;;;;;;66.60;2.33;;;21.60;2.40;;;;;;5019388;28;20408;-82
2022/09/08 17:14:34;;;;;;;64.97;2.20;;;21.60;2.70;;;;;;5001782;28;20413;-81
2022/09/08 17:17:24;;;;;;;65.97;2.10;;;21.60;6.00;;;;;;5019112;28;20425;-82
2022/09/08 17:19:57;;;;;;;64.90;2.20;;;21.60;6.30;;;;;;5019336;28;20276;-81
2022/09/08 17:22:47;;;;;;;65.87;2.50;;;21.50;7.70;;;;;;5002427;28;20504;-82
2022/09/08 17:25:35;;;;;;;65.37;2.27;;;21.50;8.90;;;;;;5019645;28;20424;-82
2022/09/08 17:28:41;;;;;;;66.00;2.50;;;21.50;9.50;;;;;;5002790;28;20563;-82
2022/09/08 17:31:27;;;;;;;65.47;2.87;;;21.50;9.90;;;;;;4980478;28;20405;-82
2022/09/08 17:34:19;;;;;;;66.83;2.60;;;21.50;14.10;;;;;;5020666;28;20400;-83
2022/09/08 17:36:57;;;;;;;67.10;2.93;;;21.40;15.70;;;;;;5006071;28;20471;-83
2022/09/08 17:39:35;;;;;;;68.80;2.63;;;21.30;19.40;;;;;;5004758;28;20460;-82
2022/09/08 17:42:16;;;;;;;67.70;2.70;;;21.30;18.50;;;;;;5021159;28;20891;-82
2022/09/08 17:44:47;;;;;;;64.67;2.37;;;21.30;27.80;;;;;;5003615;28;20412;-81
2022/09/08 17:48:03;;;;;;;65.60;2.30;;;21.20;30.00;;;;;;5020728;28;20452;-81
2022/09/08 17:50:50;;;;;;;65.93;2.60;;;21.20;37.70;;;;;;5021888;28;20503;-82
2022/09/08 17:53:32;;;;;;;66.90;2.50;;;21.20;41.60;;;;;;5020999;28;20394;-81
2022/09/08 17:56:32;;;;;;;67.67;3.20;;;21.10;45.90;;;;;;5001534;28;20921;-81
2022/09/08 17:59:39;;;;;;;68.50;5.00;;;21.00;48.80;;;;;;5020987;28;20444;-81
2022/09/08 18:02:23;;;;;;;68.30;2.50;;;21.00;54.50;;;;;;5020776;28;20476;-81
2022/09/08 18:05:04;;;;;;;68.13;2.87;;;20.90;59.30;;;;;;5021540;28;20745;-81
2022/09/08 18:07:30;;;;;;;67.43;3.40;;;20.70;65.40;;;;;;5020821;28;20807;-81
2022/09/08 18:10:01;;;;;;;65.77;2.97;;;20.70;60.00;;;;;;5002625;28;20416;-81
2022/09/08 18:12:29;;;;;;;68.80;2.93;;;20.70;59.40;;;;;;5019727;28;20738;-82
2022/09/08 18:14:59;;;;;;;66.37;2.90;;;20.60;61.30;;;;;;5019400;28;20420;-80
2022/09/08 18:17:30;;;;;;;65.93;2.70;;;20.60;62.00;;;;;;5020323;28;20910;-80
2022/09/08 18:20:03;;;;;;;65.17;2.63;;;20.60;62.20;;;;;;5020659;28;20473;-82
2022/09/08 18:22:59;;;;;;;70.03;3.30;;;20.50;63.10;;;;;;5020496;28;20394;-81